sensor_id;sensor_type;location;lat;lon;timestamp;temperature;humidity
27647;DHT22;42229;51.230;6.240;2023-02-28T00:00:45;1.40;99.90
27647;DHT22;42229;51.230;6.240;2023-02-28T00:03:11;1.40;99.90
27647;DHT22;42229;51.230;6.240;2023-02-28T00:05:37;1.40;99.90
27647;DHT22;42229;51.230;6.240;2023-02-28T00:08:03;1.40;99.90
27647;DHT22;42229;51.230;6.240;2023-02-28T00:10:30;1.40;99.90
27647;DHT22;42229;51.230;6.240;2023-02-28T00:13:02;1.40;99.90
27647;DHT22;42229;51.230;6.240;2023-02-28T00:15:30;1.30;99.90
27647;DHT22;42229;51.230;6.240;2023-02-28T00:17:57;1.30;99.90
27647;DHT22;42229;51.230;6.240;2023-02-28T00:20:23;1.30;99.90
27647;DHT22;42229;51.230;6.240;2023-02-28T00:22:50;1.20;99.90
27647;DHT22;42229;51.230;6.240;2023-02-28T00:25:22;1.20;99.90
27647;DHT22;42229;51.230;6.240;2023-02-28T00:27:51;1.20;99.90
27647;DHT22;42229;51.230;6.240;2023-02-28T00:30:18;1.10;99.90
27647;DHT22;42229;51.230;6.240;2023-02-28T00:32:46;1.20;99.90
27647;DHT22;42229;51.230;6.240;2023-02-28T00:35:13;1.10;99.90
27647;DHT22;42229;51.230;6.240;2023-02-28T00:37:41;1.10;99.90
27647;DHT22;42229;51.230;6.240;2023-02-28T00:40:10;1.10;99.90
27647;DHT22;42229;51.230;6.240;2023-02-28T00:42:38;1.10;99.90
27647;DHT22;42229;51.230;6.240;2023-02-28T00:45:04;1.10;99.90
27647;DHT22;42229;51.230;6.240;2023-02-28T00:47:31;1.00;99.90
27647;DHT22;42229;51.230;6.240;2023-02-28T00:49:58;1.00;99.90
27647;DHT22;42229;51.230;6.240;2023-02-28T00:52:24;1.00;99.90
27647;DHT22;42229;51.230;6.240;2023-02-28T00:54:50;1.00;99.90
27647;DHT22;42229;51.230;6.240;2023-02-28T00:57:16;1.00;99.90
27647;DHT22;42229;51.230;6.240;2023-02-28T00:59:43;0.90;99.90
27647;DHT22;42229;51.230;6.240;2023-02-28T01:02:09;0.90;99.90
27647;DHT22;42229;51.230;6.240;2023-02-28T01:04:36;0.90;99.90
27647;DHT22;42229;51.230;6.240;2023-02-28T01:07:02;0.80;99.90
27647;DHT22;42229;51.230;6.240;2023-02-28T01:09:29;0.80;99.90
27647;DHT22;42229;51.230;6.240;2023-02-28T01:11:55;0.80;99.90
27647;DHT22;42229;51.230;6.240;2023-02-28T01:14:22;0.70;99.90
27647;DHT22;42229;51.230;6.240;2023-02-28T01:16:48;0.70;99.90
27647;DHT22;42229;51.230;6.240;2023-02-28T01:19:14;0.70;99.90
27647;DHT22;42229;51.230;6.240;2023-02-28T01:21:41;0.60;99.90
27647;DHT22;42229;51.230;6.240;2023-02-28T01:24:07;0.60;99.90
27647;DHT22;42229;51.230;6.240;2023-02-28T01:26:35;0.50;99.90
27647;DHT22;42229;51.230;6.240;2023-02-28T01:29:01;0.50;99.90
27647;DHT22;42229;51.230;6.240;2023-02-28T01:31:28;0.50;99.90
27647;DHT22;42229;51.230;6.240;2023-02-28T01:33:55;0.40;99.90
27647;DHT22;42229;51.230;6.240;2023-02-28T01:36:23;0.40;99.90
27647;DHT22;42229;51.230;6.240;2023-02-28T01:38:50;0.30;99.90
27647;DHT22;42229;51.230;6.240;2023-02-28T01:41:26;0.30;99.90
27647;DHT22;42229;51.230;6.240;2023-02-28T01:43:59;0.30;99.90
27647;DHT22;42229;51.230;6.240;2023-02-28T01:46:29;0.20;99.90
27647;DHT22;42229;51.230;6.240;2023-02-28T01:48:59;0.20;99.90
27647;DHT22;42229;51.230;6.240;2023-02-28T01:51:29;0.20;99.90
27647;DHT22;42229;51.230;6.240;2023-02-28T01:54:02;0.20;99.90
27647;DHT22;42229;51.230;6.240;2023-02-28T01:56:33;0.20;99.90
27647;DHT22;42229;51.230;6.240;2023-02-28T01:59:00;0.20;99.90
27647;DHT22;42229;51.230;6.240;2023-02-28T02:01:27;0.20;99.90
27647;DHT22;42229;51.230;6.240;2023-02-28T02:03:55;0.20;99.90
27647;DHT22;42229;51.230;6.240;2023-02-28T02:06:26;0.20;99.90
27647;DHT22;42229;51.230;6.240;2023-02-28T02:08:55;0.20;99.90
27647;DHT22;42229;51.230;6.240;2023-02-28T02:11:22;0.20;99.90
27647;DHT22;42229;51.230;6.240;2023-02-28T02:16:50;0.20;99.90
27647;DHT22;42229;51.230;6.240;2023-02-28T02:36:24;0.40;99.90
27647;DHT22;42229;51.230;6.240;2023-02-28T02:41:41;0.30;99.90
27647;DHT22;42229;51.230;6.240;2023-02-28T02:44:15;0.40;99.90
27647;DHT22;42229;51.230;6.240;2023-02-28T02:46:46;0.30;99.90
27647;DHT22;42229;51.230;6.240;2023-02-28T02:49:15;0.30;99.90
27647;DHT22;42229;51.230;6.240;2023-02-28T02:51:44;0.30;99.90
27647;DHT22;42229;51.230;6.240;2023-02-28T02:54:22;0.30;99.90
27647;DHT22;42229;51.230;6.240;2023-02-28T02:56:55;0.30;99.90
27647;DHT22;42229;51.230;6.240;2023-02-28T02:59:23;0.30;99.90
27647;DHT22;42229;51.230;6.240;2023-02-28T03:01:54;0.30;99.90
27647;DHT22;42229;51.230;6.240;2023-02-28T03:04:23;0.30;99.90
27647;DHT22;42229;51.230;6.240;2023-02-28T03:06:51;0.20;99.90
27647;DHT22;42229;51.230;6.240;2023-02-28T03:09:22;0.20;99.90
27647;DHT22;42229;51.230;6.240;2023-02-28T03:11:48;0.20;99.90
27647;DHT22;42229;51.230;6.240;2023-02-28T03:16:59;0.20;99.90
27647;DHT22;42229;51.230;6.240;2023-02-28T03:25:02;0.20;99.90
27647;DHT22;42229;51.230;6.240;2023-02-28T03:30:15;0.10;99.90
27647;DHT22;42229;51.230;6.240;2023-02-28T03:32:53;0.10;99.90
27647;DHT22;42229;51.230;6.240;2023-02-28T03:35:24;0.10;99.90
27647;DHT22;42229;51.230;6.240;2023-02-28T03:37:53;0.00;99.90
27647;DHT22;42229;51.230;6.240;2023-02-28T03:40:27;0.00;99.90
27647;DHT22;42229;51.230;6.240;2023-02-28T03:42:57;-0.10;99.90
27647;DHT22;42229;51.230;6.240;2023-02-28T03:45:28;-0.10;99.90
27647;DHT22;42229;51.230;6.240;2023-02-28T03:48:39;-0.10;99.90
27647;DHT22;42229;51.230;6.240;2023-02-28T03:50:51;-0.20;99.90
27647;DHT22;42229;51.230;6.240;2023-02-28T03:53:30;-0.20;99.90
27647;DHT22;42229;51.230;6.240;2023-02-28T03:56:01;-0.20;99.90
27647;DHT22;42229;51.230;6.240;2023-02-28T03:58:43;-0.30;99.90
27647;DHT22;42229;51.230;6.240;2023-02-28T04:04:07;-0.40;99.90
27647;DHT22;42229;51.230;6.240;2023-02-28T04:06:34;-0.30;99.90
27647;DHT22;42229;51.230;6.240;2023-02-28T04:09:00;-0.40;99.90
27647;DHT22;42229;51.230;6.240;2023-02-28T04:14:05;-0.30;99.90
27647;DHT22;42229;51.230;6.240;2023-02-28T04:16:32;-0.30;99.90
27647;DHT22;42229;51.230;6.240;2023-02-28T04:18:59;-0.30;99.90
27647;DHT22;42229;51.230;6.240;2023-02-28T04:21:31;-0.30;99.90
27647;DHT22;42229;51.230;6.240;2023-02-28T04:23:59;-0.30;99.90
27647;DHT22;42229;51.230;6.240;2023-02-28T04:26:30;-0.30;99.90
27647;DHT22;42229;51.230;6.240;2023-02-28T04:28:57;-0.30;99.90
27647;DHT22;42229;51.230;6.240;2023-02-28T04:31:24;-0.30;99.90
27647;DHT22;42229;51.230;6.240;2023-02-28T04:33:50;-0.30;99.90
27647;DHT22;42229;51.230;6.240;2023-02-28T04:36:16;-0.30;99.90
27647;DHT22;42229;51.230;6.240;2023-02-28T04:38:45;-0.30;99.90
27647;DHT22;42229;51.230;6.240;2023-02-28T04:41:12;-0.30;99.90
27647;DHT22;42229;51.230;6.240;2023-02-28T04:43:39;-0.30;99.90
27647;DHT22;42229;51.230;6.240;2023-02-28T04:46:05;-0.30;99.90
27647;DHT22;42229;51.230;6.240;2023-02-28T04:48:33;-0.30;99.90
27647;DHT22;42229;51.230;6.240;2023-02-28T04:51:04;-0.30;99.90
27647;DHT22;42229;51.230;6.240;2023-02-28T04:53:30;-0.30;99.90
27647;DHT22;42229;51.230;6.240;2023-02-28T04:55:57;-0.30;99.90
27647;DHT22;42229;51.230;6.240;2023-02-28T04:58:24;-0.40;99.90
27647;DHT22;42229;51.230;6.240;2023-02-28T05:00:50;-0.40;99.90
27647;DHT22;42229;51.230;6.240;2023-02-28T05:03:17;-0.40;99.90
27647;DHT22;42229;51.230;6.240;2023-02-28T05:05:43;-0.40;99.90
27647;DHT22;42229;51.230;6.240;2023-02-28T05:08:09;-0.50;99.90
27647;DHT22;42229;51.230;6.240;2023-02-28T05:10:36;-0.50;99.90
27647;DHT22;42229;51.230;6.240;2023-02-28T05:13:02;-0.50;99.90
27647;DHT22;42229;51.230;6.240;2023-02-28T05:15:28;-0.50;99.90
27647;DHT22;42229;51.230;6.240;2023-02-28T05:17:55;-0.50;99.90
27647;DHT22;42229;51.230;6.240;2023-02-28T05:20:21;-0.50;99.90
27647;DHT22;42229;51.230;6.240;2023-02-28T05:22:47;-0.60;99.90
27647;DHT22;42229;51.230;6.240;2023-02-28T05:25:16;-0.60;99.90
27647;DHT22;42229;51.230;6.240;2023-02-28T05:27:43;-0.60;99.90
27647;DHT22;42229;51.230;6.240;2023-02-28T05:30:10;-0.60;99.90
27647;DHT22;42229;51.230;6.240;2023-02-28T05:32:37;-0.60;99.90
27647;DHT22;42229;51.230;6.240;2023-02-28T05:35:04;-0.60;99.90
27647;DHT22;42229;51.230;6.240;2023-02-28T05:37:30;-0.60;99.90
27647;DHT22;42229;51.230;6.240;2023-02-28T05:39:57;-0.60;99.90
27647;DHT22;42229;51.230;6.240;2023-02-28T05:42:23;-0.60;99.90
27647;DHT22;42229;51.230;6.240;2023-02-28T05:44:49;-0.60;99.90
27647;DHT22;42229;51.230;6.240;2023-02-28T05:47:16;-0.50;99.90
27647;DHT22;42229;51.230;6.240;2023-02-28T05:49:42;-0.50;99.90
27647;DHT22;42229;51.230;6.240;2023-02-28T05:52:08;-0.50;99.90
27647;DHT22;42229;51.230;6.240;2023-02-28T05:54:35;-0.50;99.90
27647;DHT22;42229;51.230;6.240;2023-02-28T05:57:01;-0.50;99.90
27647;DHT22;42229;51.230;6.240;2023-02-28T05:59:27;-0.50;99.90
27647;DHT22;42229;51.230;6.240;2023-02-28T06:01:53;-0.40;99.90
27647;DHT22;42229;51.230;6.240;2023-02-28T06:04:20;-0.40;99.90
27647;DHT22;42229;51.230;6.240;2023-02-28T06:06:47;-0.40;99.90
27647;DHT22;42229;51.230;6.240;2023-02-28T06:09:14;-0.40;99.90
27647;DHT22;42229;51.230;6.240;2023-02-28T06:11:41;-0.40;99.90
27647;DHT22;42229;51.230;6.240;2023-02-28T06:14:07;-0.40;99.90
27647;DHT22;42229;51.230;6.240;2023-02-28T06:16:40;-0.40;99.90
27647;DHT22;42229;51.230;6.240;2023-02-28T06:19:06;-0.40;99.90
27647;DHT22;42229;51.230;6.240;2023-02-28T06:21:32;-0.40;99.90
27647;DHT22;42229;51.230;6.240;2023-02-28T06:23:58;-0.40;99.90
27647;DHT22;42229;51.230;6.240;2023-02-28T06:26:25;-0.40;99.90
27647;DHT22;42229;51.230;6.240;2023-02-28T06:28:51;-0.40;99.90
27647;DHT22;42229;51.230;6.240;2023-02-28T06:31:18;-0.40;99.90
27647;DHT22;42229;51.230;6.240;2023-02-28T06:33:45;-0.40;99.90
27647;DHT22;42229;51.230;6.240;2023-02-28T06:36:12;-0.30;99.90
27647;DHT22;42229;51.230;6.240;2023-02-28T06:38:39;-0.30;99.90
27647;DHT22;42229;51.230;6.240;2023-02-28T06:41:05;-0.30;99.90
27647;DHT22;42229;51.230;6.240;2023-02-28T06:43:34;-0.30;99.90
27647;DHT22;42229;51.230;6.240;2023-02-28T06:46:06;-0.30;99.90
27647;DHT22;42229;51.230;6.240;2023-02-28T06:48:34;-0.30;99.90
27647;DHT22;42229;51.230;6.240;2023-02-28T06:53:29;-0.20;99.90
27647;DHT22;42229;51.230;6.240;2023-02-28T06:55:55;-0.20;99.90
27647;DHT22;42229;51.230;6.240;2023-02-28T06:58:22;-0.20;99.90
27647;DHT22;42229;51.230;6.240;2023-02-28T07:00:50;-0.20;99.90
27647;DHT22;42229;51.230;6.240;2023-02-28T07:03:17;-0.10;99.90
27647;DHT22;42229;51.230;6.240;2023-02-28T07:05:44;-0.10;99.90
27647;DHT22;42229;51.230;6.240;2023-02-28T07:08:10;-0.10;99.90
27647;DHT22;42229;51.230;6.240;2023-02-28T07:10:37;-0.10;99.90
27647;DHT22;42229;51.230;6.240;2023-02-28T07:13:04;0.00;99.90
27647;DHT22;42229;51.230;6.240;2023-02-28T07:15:31;0.00;99.90
27647;DHT22;42229;51.230;6.240;2023-02-28T07:17:58;0.10;99.90
27647;DHT22;42229;51.230;6.240;2023-02-28T07:20:24;0.10;99.90
27647;DHT22;42229;51.230;6.240;2023-02-28T07:22:50;0.10;99.90
27647;DHT22;42229;51.230;6.240;2023-02-28T07:25:22;0.10;99.90
27647;DHT22;42229;51.230;6.240;2023-02-28T07:27:49;0.20;99.90
27647;DHT22;42229;51.230;6.240;2023-02-28T07:30:16;0.20;99.90
27647;DHT22;42229;51.230;6.240;2023-02-28T07:32:43;0.30;99.90
27647;DHT22;42229;51.230;6.240;2023-02-28T07:35:09;0.30;99.90
27647;DHT22;42229;51.230;6.240;2023-02-28T07:37:35;0.30;99.90
27647;DHT22;42229;51.230;6.240;2023-02-28T07:40:05;0.40;99.90
27647;DHT22;42229;51.230;6.240;2023-02-28T07:42:37;0.40;99.90
27647;DHT22;42229;51.230;6.240;2023-02-28T07:45:04;0.50;99.90
27647;DHT22;42229;51.230;6.240;2023-02-28T07:47:31;0.50;99.90
27647;DHT22;42229;51.230;6.240;2023-02-28T07:49:57;0.60;99.90
27647;DHT22;42229;51.230;6.240;2023-02-28T07:52:24;0.70;99.90
27647;DHT22;42229;51.230;6.240;2023-02-28T07:54:50;0.80;99.90
27647;DHT22;42229;51.230;6.240;2023-02-28T07:57:17;0.90;99.90
27647;DHT22;42229;51.230;6.240;2023-02-28T07:59:43;0.90;99.90
27647;DHT22;42229;51.230;6.240;2023-02-28T08:02:13;1.00;99.90
27647;DHT22;42229;51.230;6.240;2023-02-28T08:04:40;1.10;99.90
27647;DHT22;42229;51.230;6.240;2023-02-28T08:07:07;1.20;99.90
27647;DHT22;42229;51.230;6.240;2023-02-28T08:09:33;1.30;99.90
27647;DHT22;42229;51.230;6.240;2023-02-28T08:12:00;1.40;99.90
27647;DHT22;42229;51.230;6.240;2023-02-28T08:14:26;1.40;99.90
27647;DHT22;42229;51.230;6.240;2023-02-28T08:16:52;1.60;99.90
27647;DHT22;42229;51.230;6.240;2023-02-28T08:19:18;1.70;99.90
27647;DHT22;42229;51.230;6.240;2023-02-28T08:21:44;1.70;99.90
27647;DHT22;42229;51.230;6.240;2023-02-28T08:24:11;1.80;99.90
27647;DHT22;42229;51.230;6.240;2023-02-28T08:26:37;1.90;99.90
27647;DHT22;42229;51.230;6.240;2023-02-28T08:29:03;2.10;99.90
27647;DHT22;42229;51.230;6.240;2023-02-28T08:31:29;2.20;99.90
27647;DHT22;42229;51.230;6.240;2023-02-28T08:33:56;2.30;99.90
27647;DHT22;42229;51.230;6.240;2023-02-28T08:36:25;2.40;99.90
27647;DHT22;42229;51.230;6.240;2023-02-28T08:38:54;2.50;99.90
27647;DHT22;42229;51.230;6.240;2023-02-28T08:41:20;2.60;99.90
27647;DHT22;42229;51.230;6.240;2023-02-28T08:43:46;2.70;99.90
27647;DHT22;42229;51.230;6.240;2023-02-28T08:46:13;2.80;99.90
27647;DHT22;42229;51.230;6.240;2023-02-28T08:48:39;3.00;99.90
27647;DHT22;42229;51.230;6.240;2023-02-28T08:51:07;3.10;99.90
27647;DHT22;42229;51.230;6.240;2023-02-28T08:53:38;3.20;99.90
27647;DHT22;42229;51.230;6.240;2023-02-28T08:56:06;3.30;99.90
27647;DHT22;42229;51.230;6.240;2023-02-28T08:58:34;3.40;99.90
27647;DHT22;42229;51.230;6.240;2023-02-28T09:01:06;3.50;99.90
27647;DHT22;42229;51.230;6.240;2023-02-28T09:03:36;3.60;99.90
27647;DHT22;42229;51.230;6.240;2023-02-28T09:06:03;3.80;99.90
27647;DHT22;42229;51.230;6.240;2023-02-28T09:08:30;3.90;99.90
27647;DHT22;42229;51.230;6.240;2023-02-28T09:10:57;3.90;99.90
27647;DHT22;42229;51.230;6.240;2023-02-28T09:13:24;4.10;99.90
27647;DHT22;42229;51.230;6.240;2023-02-28T09:15:51;4.20;99.90
27647;DHT22;42229;51.230;6.240;2023-02-28T09:18:17;4.30;99.20
27647;DHT22;42229;51.230;6.240;2023-02-28T09:20:43;4.40;99.10
27647;DHT22;42229;51.230;6.240;2023-02-28T09:23:10;4.50;99.40
27647;DHT22;42229;51.230;6.240;2023-02-28T09:25:40;4.50;95.20
27647;DHT22;42229;51.230;6.240;2023-02-28T09:28:11;4.60;93.60
27647;DHT22;42229;51.230;6.240;2023-02-28T09:30:37;4.70;94.30
27647;DHT22;42229;51.230;6.240;2023-02-28T09:33:04;4.80;92.60
27647;DHT22;42229;51.230;6.240;2023-02-28T09:35:30;4.90;94.10
27647;DHT22;42229;51.230;6.240;2023-02-28T09:37:56;5.00;95.80
27647;DHT22;42229;51.230;6.240;2023-02-28T09:40:24;5.00;92.60
27647;DHT22;42229;51.230;6.240;2023-02-28T09:42:52;5.10;93.60
27647;DHT22;42229;51.230;6.240;2023-02-28T09:45:22;5.10;95.30
27647;DHT22;42229;51.230;6.240;2023-02-28T09:47:52;5.20;93.60
27647;DHT22;42229;51.230;6.240;2023-02-28T09:52:54;5.30;90.90
27647;DHT22;42229;51.230;6.240;2023-02-28T09:55:36;5.30;92.80
27647;DHT22;42229;51.230;6.240;2023-02-28T09:58:05;5.40;92.70
27647;DHT22;42229;51.230;6.240;2023-02-28T10:00:39;5.40;91.40
27647;DHT22;42229;51.230;6.240;2023-02-28T10:03:24;5.50;94.70
27647;DHT22;42229;51.230;6.240;2023-02-28T10:08:45;5.50;89.60
27647;DHT22;42229;51.230;6.240;2023-02-28T10:11:18;5.50;86.50
27647;DHT22;42229;51.230;6.240;2023-02-28T10:13:57;5.40;85.90
27647;DHT22;42229;51.230;6.240;2023-02-28T10:16:29;5.40;86.10
27647;DHT22;42229;51.230;6.240;2023-02-28T10:22:05;5.40;84.10
27647;DHT22;42229;51.230;6.240;2023-02-28T10:24:44;5.40;84.20
27647;DHT22;42229;51.230;6.240;2023-02-28T10:27:22;5.40;85.70
27647;DHT22;42229;51.230;6.240;2023-02-28T10:29:55;5.50;86.40
27647;DHT22;42229;51.230;6.240;2023-02-28T10:32:24;5.60;87.20
27647;DHT22;42229;51.230;6.240;2023-02-28T10:35:01;5.70;88.80
27647;DHT22;42229;51.230;6.240;2023-02-28T10:37:39;5.70;90.70
27647;DHT22;42229;51.230;6.240;2023-02-28T10:40:07;5.80;82.90
27647;DHT22;42229;51.230;6.240;2023-02-28T10:43:11;5.80;84.80
27647;DHT22;42229;51.230;6.240;2023-02-28T10:46:18;6.00;91.40
27647;DHT22;42229;51.230;6.240;2023-02-28T10:48:50;6.10;87.90
27647;DHT22;42229;51.230;6.240;2023-02-28T10:51:26;6.10;84.70
27647;DHT22;42229;51.230;6.240;2023-02-28T10:54:00;6.10;88.90
27647;DHT22;42229;51.230;6.240;2023-02-28T10:56:27;6.20;89.70
27647;DHT22;42229;51.230;6.240;2023-02-28T10:58:57;6.10;89.70
27647;DHT22;42229;51.230;6.240;2023-02-28T11:01:39;6.20;87.50
27647;DHT22;42229;51.230;6.240;2023-02-28T11:04:19;6.10;90.10
27647;DHT22;42229;51.230;6.240;2023-02-28T11:06:46;6.20;86.40
27647;DHT22;42229;51.230;6.240;2023-02-28T11:09:18;6.30;87.10
27647;DHT22;42229;51.230;6.240;2023-02-28T11:11:49;6.40;90.80
27647;DHT22;42229;51.230;6.240;2023-02-28T11:14:22;6.50;94.90
27647;DHT22;42229;51.230;6.240;2023-02-28T11:16:51;6.70;90.00
27647;DHT22;42229;51.230;6.240;2023-02-28T11:19:19;6.80;87.80
27647;DHT22;42229;51.230;6.240;2023-02-28T11:21:53;7.00;87.80
27647;DHT22;42229;51.230;6.240;2023-02-28T11:24:30;7.20;90.00
27647;DHT22;42229;51.230;6.240;2023-02-28T11:26:59;7.40;97.70
27647;DHT22;42229;51.230;6.240;2023-02-28T11:29:27;7.60;84.20
27647;DHT22;42229;51.230;6.240;2023-02-28T11:34:28;8.00;91.50
27647;DHT22;42229;51.230;6.240;2023-02-28T11:36:56;8.20;85.20
27647;DHT22;42229;51.230;6.240;2023-02-28T11:39:23;8.30;76.80
27647;DHT22;42229;51.230;6.240;2023-02-28T11:44:53;8.70;75.30
27647;DHT22;42229;51.230;6.240;2023-02-28T11:47:47;8.90;73.10
27647;DHT22;42229;51.230;6.240;2023-02-28T11:53:19;9.20;69.90
27647;DHT22;42229;51.230;6.240;2023-02-28T12:02:08;10.00;65.10
27647;DHT22;42229;51.230;6.240;2023-02-28T12:07:39;10.60;63.70
27647;DHT22;42229;51.230;6.240;2023-02-28T12:10:28;10.70;60.40
27647;DHT22;42229;51.230;6.240;2023-02-28T12:13:00;10.90;58.10
27647;DHT22;42229;51.230;6.240;2023-02-28T12:15:35;10.90;57.40
27647;DHT22;42229;51.230;6.240;2023-02-28T12:20:37;11.10;59.70
27647;DHT22;42229;51.230;6.240;2023-02-28T12:26:07;11.60;65.00
27647;DHT22;42229;51.230;6.240;2023-02-28T12:28:44;11.90;55.60
27647;DHT22;42229;51.230;6.240;2023-02-28T12:33:50;12.50;54.60
27647;DHT22;42229;51.230;6.240;2023-02-28T12:36:18;12.80;55.70
27647;DHT22;42229;51.230;6.240;2023-02-28T12:41:17;13.30;55.70
27647;DHT22;42229;51.230;6.240;2023-02-28T12:43:48;13.50;57.70
27647;DHT22;42229;51.230;6.240;2023-02-28T12:46:19;13.90;59.10
27647;DHT22;42229;51.230;6.240;2023-02-28T12:48:52;14.00;65.80
27647;DHT22;42229;51.230;6.240;2023-02-28T12:51:21;14.20;49.70
27647;DHT22;42229;51.230;6.240;2023-02-28T12:59:15;14.40;55.50
27647;DHT22;42229;51.230;6.240;2023-02-28T13:04:57;14.80;67.90
27647;DHT22;42229;51.230;6.240;2023-02-28T13:10:38;15.10;59.50
27647;DHT22;42229;51.230;6.240;2023-02-28T13:13:17;15.20;55.50
27647;DHT22;42229;51.230;6.240;2023-02-28T13:16:08;15.30;54.90
27647;DHT22;42229;51.230;6.240;2023-02-28T13:18:44;15.50;48.00
27647;DHT22;42229;51.230;6.240;2023-02-28T13:21:30;15.70;72.00
27647;DHT22;42229;51.230;6.240;2023-02-28T13:24:00;15.90;53.10
27647;DHT22;42229;51.230;6.240;2023-02-28T13:29:02;16.00;44.70
27647;DHT22;42229;51.230;6.240;2023-02-28T13:31:30;16.00;45.60
27647;DHT22;42229;51.230;6.240;2023-02-28T13:36:26;15.90;46.10
27647;DHT22;42229;51.230;6.240;2023-02-28T13:38:58;16.00;50.00
27647;DHT22;42229;51.230;6.240;2023-02-28T13:44:05;16.00;45.70
27647;DHT22;42229;51.230;6.240;2023-02-28T13:46:33;16.00;46.70
27647;DHT22;42229;51.230;6.240;2023-02-28T13:57:39;16.10;44.80
27647;DHT22;42229;51.230;6.240;2023-02-28T14:02:59;16.30;47.70
27647;DHT22;42229;51.230;6.240;2023-02-28T14:05:42;16.40;43.10
27647;DHT22;42229;51.230;6.240;2023-02-28T14:08:18;16.30;45.50
27647;DHT22;42229;51.230;6.240;2023-02-28T14:10:47;16.20;44.00
27647;DHT22;42229;51.230;6.240;2023-02-28T14:16:13;15.80;44.90
27647;DHT22;42229;51.230;6.240;2023-02-28T14:18:57;15.70;43.60
27647;DHT22;42229;51.230;6.240;2023-02-28T14:21:27;15.70;43.00
27647;DHT22;42229;51.230;6.240;2023-02-28T14:24:03;15.60;43.10
27647;DHT22;42229;51.230;6.240;2023-02-28T14:26:55;15.50;42.50
27647;DHT22;42229;51.230;6.240;2023-02-28T14:35:03;15.60;46.40
27647;DHT22;42229;51.230;6.240;2023-02-28T14:37:39;15.60;45.90
27647;DHT22;42229;51.230;6.240;2023-02-28T14:40:26;15.60;43.40
27647;DHT22;42229;51.230;6.240;2023-02-28T14:42:55;15.70;44.50
27647;DHT22;42229;51.230;6.240;2023-02-28T14:45:26;15.70;44.00
27647;DHT22;42229;51.230;6.240;2023-02-28T14:47:55;15.70;46.00
27647;DHT22;42229;51.230;6.240;2023-02-28T14:50:23;15.70;44.00
27647;DHT22;42229;51.230;6.240;2023-02-28T14:52:53;15.70;45.30
27647;DHT22;42229;51.230;6.240;2023-02-28T14:55:28;15.70;49.20
27647;DHT22;42229;51.230;6.240;2023-02-28T14:57:57;15.80;49.20
27647;DHT22;42229;51.230;6.240;2023-02-28T15:00:31;15.70;43.80
27647;DHT22;42229;51.230;6.240;2023-02-28T15:03:11;15.70;45.20
27647;DHT22;42229;51.230;6.240;2023-02-28T15:05:50;15.70;49.30
27647;DHT22;42229;51.230;6.240;2023-02-28T15:08:18;15.70;47.50
27647;DHT22;42229;51.230;6.240;2023-02-28T15:10:55;15.70;46.30
27647;DHT22;42229;51.230;6.240;2023-02-28T15:13:33;15.70;44.80
27647;DHT22;42229;51.230;6.240;2023-02-28T15:16:04;15.80;47.40
27647;DHT22;42229;51.230;6.240;2023-02-28T15:26:51;15.70;45.70
27647;DHT22;42229;51.230;6.240;2023-02-28T15:29:21;15.70;45.10
27647;DHT22;42229;51.230;6.240;2023-02-28T15:31:50;15.60;47.90
27647;DHT22;42229;51.230;6.240;2023-02-28T15:34:19;15.50;46.20
27647;DHT22;42229;51.230;6.240;2023-02-28T15:36:47;15.40;46.80
27647;DHT22;42229;51.230;6.240;2023-02-28T15:39:18;15.40;48.70
27647;DHT22;42229;51.230;6.240;2023-02-28T15:41:49;15.20;43.90
27647;DHT22;42229;51.230;6.240;2023-02-28T15:44:17;14.90;43.80
27647;DHT22;42229;51.230;6.240;2023-02-28T15:46:50;14.70;46.40
27647;DHT22;42229;51.230;6.240;2023-02-28T15:49:21;14.50;47.20
27647;DHT22;42229;51.230;6.240;2023-02-28T15:51:48;14.30;45.60
27647;DHT22;42229;51.230;6.240;2023-02-28T15:54:20;14.00;47.90
27647;DHT22;42229;51.230;6.240;2023-02-28T15:56:53;13.80;47.70
27647;DHT22;42229;51.230;6.240;2023-02-28T15:59:25;13.60;46.90
27647;DHT22;42229;51.230;6.240;2023-02-28T16:02:13;13.30;47.30
27647;DHT22;42229;51.230;6.240;2023-02-28T16:05:26;13.00;48.60
27647;DHT22;42229;51.230;6.240;2023-02-28T16:07:25;12.70;48.90
27647;DHT22;42229;51.230;6.240;2023-02-28T16:09:52;12.40;49.00
27647;DHT22;42229;51.230;6.240;2023-02-28T16:12:19;12.10;51.20
27647;DHT22;42229;51.230;6.240;2023-02-28T16:14:47;11.70;51.10
27647;DHT22;42229;51.230;6.240;2023-02-28T16:17:19;11.40;50.30
27647;DHT22;42229;51.230;6.240;2023-02-28T16:19:47;11.10;51.60
27647;DHT22;42229;51.230;6.240;2023-02-28T16:22:13;10.80;51.50
27647;DHT22;42229;51.230;6.240;2023-02-28T16:24:39;10.50;52.20
27647;DHT22;42229;51.230;6.240;2023-02-28T16:27:06;10.30;53.20
27647;DHT22;42229;51.230;6.240;2023-02-28T16:29:34;10.10;53.00
27647;DHT22;42229;51.230;6.240;2023-02-28T16:32:00;9.90;54.20
27647;DHT22;42229;51.230;6.240;2023-02-28T16:34:28;9.70;54.90
27647;DHT22;42229;51.230;6.240;2023-02-28T16:36:54;9.70;56.10
27647;DHT22;42229;51.230;6.240;2023-02-28T16:39:20;9.60;55.70
27647;DHT22;42229;51.230;6.240;2023-02-28T16:41:47;9.60;55.90
27647;DHT22;42229;51.230;6.240;2023-02-28T16:44:27;9.60;55.50
27647;DHT22;42229;51.230;6.240;2023-02-28T16:46:55;9.50;56.10
27647;DHT22;42229;51.230;6.240;2023-02-28T16:49:21;9.50;56.80
27647;DHT22;42229;51.230;6.240;2023-02-28T16:51:48;9.30;56.90
27647;DHT22;42229;51.230;6.240;2023-02-28T16:54:14;9.10;56.70
27647;DHT22;42229;51.230;6.240;2023-02-28T16:56:43;9.00;58.00
27647;DHT22;42229;51.230;6.240;2023-02-28T16:59:11;8.80;57.50
27647;DHT22;42229;51.230;6.240;2023-02-28T17:01:38;8.60;57.80
27647;DHT22;42229;51.230;6.240;2023-02-28T17:04:04;8.40;58.90
27647;DHT22;42229;51.230;6.240;2023-02-28T17:06:30;8.20;59.00
27647;DHT22;42229;51.230;6.240;2023-02-28T17:08:57;8.10;59.50
27647;DHT22;42229;51.230;6.240;2023-02-28T17:11:24;7.90;59.80
27647;DHT22;42229;51.230;6.240;2023-02-28T17:13:51;7.70;60.50
27647;DHT22;42229;51.230;6.240;2023-02-28T17:16:27;7.50;60.90
27647;DHT22;42229;51.230;6.240;2023-02-28T17:18:57;7.40;61.30
27647;DHT22;42229;51.230;6.240;2023-02-28T17:21:24;7.20;62.00
27647;DHT22;42229;51.230;6.240;2023-02-28T17:23:51;7.10;62.50
27647;DHT22;42229;51.230;6.240;2023-02-28T17:26:17;7.00;63.00
27647;DHT22;42229;51.230;6.240;2023-02-28T17:28:50;6.90;63.60
27647;DHT22;42229;51.230;6.240;2023-02-28T17:31:17;6.70;64.20
27647;DHT22;42229;51.230;6.240;2023-02-28T17:33:44;6.60;64.80
27647;DHT22;42229;51.230;6.240;2023-02-28T17:36:13;6.50;65.20
27647;DHT22;42229;51.230;6.240;2023-02-28T17:38:42;6.30;65.50
27647;DHT22;42229;51.230;6.240;2023-02-28T17:41:12;6.30;66.20
27647;DHT22;42229;51.230;6.240;2023-02-28T17:43:38;6.20;66.80
27647;DHT22;42229;51.230;6.240;2023-02-28T17:46:05;6.10;67.00
27647;DHT22;42229;51.230;6.240;2023-02-28T17:48:34;6.00;67.50
27647;DHT22;42229;51.230;6.240;2023-02-28T17:51:01;5.90;67.80
27647;DHT22;42229;51.230;6.240;2023-02-28T17:53:27;5.80;68.30
27647;DHT22;42229;51.230;6.240;2023-02-28T17:55:54;5.70;68.70
27647;DHT22;42229;51.230;6.240;2023-02-28T17:58:20;5.60;69.30
27647;DHT22;42229;51.230;6.240;2023-02-28T18:00:46;5.60;69.60